sensor_id;sensor_type;location;lat;lon;timestamp;temperature;humidity
18177;DHT22;9213;50.858;3.964;2022-08-03T00:00:26;26.20;44.60
18177;DHT22;9213;50.858;3.964;2022-08-03T00:02:54;26.20;44.80
18177;DHT22;9213;50.858;3.964;2022-08-03T00:05:21;26.10;45.60
18177;DHT22;9213;50.858;3.964;2022-08-03T00:07:48;26.10;45.00
18177;DHT22;9213;50.858;3.964;2022-08-03T00:10:15;26.10;45.10
18177;DHT22;9213;50.858;3.964;2022-08-03T00:12:42;26.00;45.20
18177;DHT22;9213;50.858;3.964;2022-08-03T00:15:10;26.00;45.20
18177;DHT22;9213;50.858;3.964;2022-08-03T00:17:37;25.90;45.00
18177;DHT22;9213;50.858;3.964;2022-08-03T00:20:06;25.90;45.00
18177;DHT22;9213;50.858;3.964;2022-08-03T00:22:33;25.90;45.20
18177;DHT22;9213;50.858;3.964;2022-08-03T00:25:00;25.80;45.50
18177;DHT22;9213;50.858;3.964;2022-08-03T00:27:27;25.80;45.60
18177;DHT22;9213;50.858;3.964;2022-08-03T00:29:54;25.70;45.70
18177;DHT22;9213;50.858;3.964;2022-08-03T00:32:21;25.70;45.60
18177;DHT22;9213;50.858;3.964;2022-08-03T00:34:48;25.60;45.70
18177;DHT22;9213;50.858;3.964;2022-08-03T00:37:17;25.60;46.00
18177;DHT22;9213;50.858;3.964;2022-08-03T00:39:44;25.60;46.20
18177;DHT22;9213;50.858;3.964;2022-08-03T00:42:12;25.50;46.30
18177;DHT22;9213;50.858;3.964;2022-08-03T00:44:41;25.50;46.40
18177;DHT22;9213;50.858;3.964;2022-08-03T00:47:08;25.40;46.70
18177;DHT22;9213;50.858;3.964;2022-08-03T00:49:36;25.40;46.80
18177;DHT22;9213;50.858;3.964;2022-08-03T00:52:03;25.40;46.90
18177;DHT22;9213;50.858;3.964;2022-08-03T00:54:32;25.30;47.10
18177;DHT22;9213;50.858;3.964;2022-08-03T00:57:00;25.30;47.40
18177;DHT22;9213;50.858;3.964;2022-08-03T00:59:28;25.30;47.50
18177;DHT22;9213;50.858;3.964;2022-08-03T01:01:55;25.20;47.60
18177;DHT22;9213;50.858;3.964;2022-08-03T01:04:22;25.20;47.80
18177;DHT22;9213;50.858;3.964;2022-08-03T01:06:51;25.10;48.00
18177;DHT22;9213;50.858;3.964;2022-08-03T01:09:25;25.10;48.10
18177;DHT22;9213;50.858;3.964;2022-08-03T01:12:02;25.10;48.20
18177;DHT22;9213;50.858;3.964;2022-08-03T01:14:33;25.10;48.20
18177;DHT22;9213;50.858;3.964;2022-08-03T01:17:09;25.10;48.60
18177;DHT22;9213;50.858;3.964;2022-08-03T01:19:45;25.00;48.70
18177;DHT22;9213;50.858;3.964;2022-08-03T01:22:30;25.00;48.70
18177;DHT22;9213;50.858;3.964;2022-08-03T01:25:05;25.00;49.00
18177;DHT22;9213;50.858;3.964;2022-08-03T01:27:48;24.90;49.10
18177;DHT22;9213;50.858;3.964;2022-08-03T01:30:19;24.90;49.00
18177;DHT22;9213;50.858;3.964;2022-08-03T01:32:53;24.80;49.10
18177;DHT22;9213;50.858;3.964;2022-08-03T01:35:25;24.80;49.00
18177;DHT22;9213;50.858;3.964;2022-08-03T01:37:57;24.80;49.20
18177;DHT22;9213;50.858;3.964;2022-08-03T01:40:26;24.80;49.20
18177;DHT22;9213;50.858;3.964;2022-08-03T01:42:55;24.70;49.50
18177;DHT22;9213;50.858;3.964;2022-08-03T01:45:26;24.70;49.70
18177;DHT22;9213;50.858;3.964;2022-08-03T01:47:54;24.60;49.70
18177;DHT22;9213;50.858;3.964;2022-08-03T01:50:25;24.60;49.70
18177;DHT22;9213;50.858;3.964;2022-08-03T01:52:53;24.60;49.80
18177;DHT22;9213;50.858;3.964;2022-08-03T01:55:22;24.50;49.80
18177;DHT22;9213;50.858;3.964;2022-08-03T01:57:53;24.50;50.00
18177;DHT22;9213;50.858;3.964;2022-08-03T02:00:22;24.50;50.00
18177;DHT22;9213;50.858;3.964;2022-08-03T02:02:51;24.50;50.20
18177;DHT22;9213;50.858;3.964;2022-08-03T02:05:20;24.40;50.10
18177;DHT22;9213;50.858;3.964;2022-08-03T02:07:47;24.40;50.10
18177;DHT22;9213;50.858;3.964;2022-08-03T02:10:18;24.40;50.20
18177;DHT22;9213;50.858;3.964;2022-08-03T02:12:46;24.30;50.30
18177;DHT22;9213;50.858;3.964;2022-08-03T02:15:15;24.30;50.20
18177;DHT22;9213;50.858;3.964;2022-08-03T02:17:45;24.30;50.40
18177;DHT22;9213;50.858;3.964;2022-08-03T02:20:14;24.20;50.50
18177;DHT22;9213;50.858;3.964;2022-08-03T02:22:42;24.20;50.50
18177;DHT22;9213;50.858;3.964;2022-08-03T02:25:11;24.10;50.70
18177;DHT22;9213;50.858;3.964;2022-08-03T02:27:42;24.10;50.90
18177;DHT22;9213;50.858;3.964;2022-08-03T02:30:12;24.10;51.10
18177;DHT22;9213;50.858;3.964;2022-08-03T02:32:41;24.00;51.10
18177;DHT22;9213;50.858;3.964;2022-08-03T02:35:13;24.00;51.20
18177;DHT22;9213;50.858;3.964;2022-08-03T02:37:43;24.00;51.20
18177;DHT22;9213;50.858;3.964;2022-08-03T02:40:12;24.00;51.10
18177;DHT22;9213;50.858;3.964;2022-08-03T02:42:41;23.90;51.10
18177;DHT22;9213;50.858;3.964;2022-08-03T02:45:11;23.90;51.10
18177;DHT22;9213;50.858;3.964;2022-08-03T02:47:40;23.90;51.20
18177;DHT22;9213;50.858;3.964;2022-08-03T02:50:10;23.80;51.20
18177;DHT22;9213;50.858;3.964;2022-08-03T02:52:39;23.80;51.30
18177;DHT22;9213;50.858;3.964;2022-08-03T02:55:09;23.70;51.50
18177;DHT22;9213;50.858;3.964;2022-08-03T02:57:37;23.70;51.50
18177;DHT22;9213;50.858;3.964;2022-08-03T03:00:07;23.70;51.70
18177;DHT22;9213;50.858;3.964;2022-08-03T03:02:34;23.70;51.80
18177;DHT22;9213;50.858;3.964;2022-08-03T03:05:01;23.60;51.80
18177;DHT22;9213;50.858;3.964;2022-08-03T03:07:29;23.60;52.00
18177;DHT22;9213;50.858;3.964;2022-08-03T03:09:58;23.60;52.00
18177;DHT22;9213;50.858;3.964;2022-08-03T03:12:27;23.50;52.10
18177;DHT22;9213;50.858;3.964;2022-08-03T03:14:55;23.50;52.20
18177;DHT22;9213;50.858;3.964;2022-08-03T03:17:23;23.50;52.20
18177;DHT22;9213;50.858;3.964;2022-08-03T03:19:51;23.50;52.30
18177;DHT22;9213;50.858;3.964;2022-08-03T03:22:19;23.40;52.30
18177;DHT22;9213;50.858;3.964;2022-08-03T03:24:48;23.40;52.20
18177;DHT22;9213;50.858;3.964;2022-08-03T03:27:17;23.40;52.20
18177;DHT22;9213;50.858;3.964;2022-08-03T03:29:45;23.30;52.30
18177;DHT22;9213;50.858;3.964;2022-08-03T03:32:12;23.30;52.30
18177;DHT22;9213;50.858;3.964;2022-08-03T03:34:39;23.30;52.40
18177;DHT22;9213;50.858;3.964;2022-08-03T03:37:06;23.20;52.50
18177;DHT22;9213;50.858;3.964;2022-08-03T03:39:33;23.20;52.60
18177;DHT22;9213;50.858;3.964;2022-08-03T03:42:01;23.20;52.70
18177;DHT22;9213;50.858;3.964;2022-08-03T03:44:29;23.20;52.70
18177;DHT22;9213;50.858;3.964;2022-08-03T03:46:57;23.10;53.00
18177;DHT22;9213;50.858;3.964;2022-08-03T03:49:24;23.10;53.00
18177;DHT22;9213;50.858;3.964;2022-08-03T03:51:52;23.10;53.20
18177;DHT22;9213;50.858;3.964;2022-08-03T03:54:19;23.10;53.30
18177;DHT22;9213;50.858;3.964;2022-08-03T03:56:47;23.00;53.40
18177;DHT22;9213;50.858;3.964;2022-08-03T03:59:13;23.00;53.50
18177;DHT22;9213;50.858;3.964;2022-08-03T04:01:42;23.00;53.60
18177;DHT22;9213;50.858;3.964;2022-08-03T04:04:09;23.00;53.80
18177;DHT22;9213;50.858;3.964;2022-08-03T04:06:53;23.00;53.90
18177;DHT22;9213;50.858;3.964;2022-08-03T04:09:39;22.90;54.00
18177;DHT22;9213;50.858;3.964;2022-08-03T04:12:25;22.90;53.90
18177;DHT22;9213;50.858;3.964;2022-08-03T04:14:56;22.90;54.00
18177;DHT22;9213;50.858;3.964;2022-08-03T04:17:26;22.90;54.00
18177;DHT22;9213;50.858;3.964;2022-08-03T04:19:56;22.80;54.10
18177;DHT22;9213;50.858;3.964;2022-08-03T04:22:25;22.80;54.40
18177;DHT22;9213;50.858;3.964;2022-08-03T04:24:57;22.80;54.60
18177;DHT22;9213;50.858;3.964;2022-08-03T04:27:28;22.80;54.70
18177;DHT22;9213;50.858;3.964;2022-08-03T04:29:58;22.70;54.70
18177;DHT22;9213;50.858;3.964;2022-08-03T04:32:29;22.70;54.90
18177;DHT22;9213;50.858;3.964;2022-08-03T04:34:57;22.70;55.10
18177;DHT22;9213;50.858;3.964;2022-08-03T04:37:32;22.70;55.20
18177;DHT22;9213;50.858;3.964;2022-08-03T04:40:02;22.70;55.30
18177;DHT22;9213;50.858;3.964;2022-08-03T04:42:32;22.70;55.30
18177;DHT22;9213;50.858;3.964;2022-08-03T04:45:01;22.70;55.30
18177;DHT22;9213;50.858;3.964;2022-08-03T04:47:31;22.70;55.50
18177;DHT22;9213;50.858;3.964;2022-08-03T04:50:00;22.70;55.50
18177;DHT22;9213;50.858;3.964;2022-08-03T04:52:27;22.70;55.50
18177;DHT22;9213;50.858;3.964;2022-08-03T04:54:54;22.80;55.40
18177;DHT22;9213;50.858;3.964;2022-08-03T04:57:21;22.80;55.40
18177;DHT22;9213;50.858;3.964;2022-08-03T04:59:48;22.80;55.50
18177;DHT22;9213;50.858;3.964;2022-08-03T05:02:17;22.80;55.50
18177;DHT22;9213;50.858;3.964;2022-08-03T05:04:45;22.80;55.40
18177;DHT22;9213;50.858;3.964;2022-08-03T05:07:12;22.90;55.30
18177;DHT22;9213;50.858;3.964;2022-08-03T05:09:40;22.90;55.30
18177;DHT22;9213;50.858;3.964;2022-08-03T05:12:07;22.90;55.20
18177;DHT22;9213;50.858;3.964;2022-08-03T05:14:35;22.90;55.90
18177;DHT22;9213;50.858;3.964;2022-08-03T05:17:03;23.00;55.20
18177;DHT22;9213;50.858;3.964;2022-08-03T05:19:30;23.00;55.20
18177;DHT22;9213;50.858;3.964;2022-08-03T05:21:58;23.00;55.00
18177;DHT22;9213;50.858;3.964;2022-08-03T05:24:25;23.10;55.20
18177;DHT22;9213;50.858;3.964;2022-08-03T05:26:52;23.10;55.10
18177;DHT22;9213;50.858;3.964;2022-08-03T05:29:19;23.10;55.10
18177;DHT22;9213;50.858;3.964;2022-08-03T05:31:46;23.10;55.00
18177;DHT22;9213;50.858;3.964;2022-08-03T05:34:13;23.10;55.00
18177;DHT22;9213;50.858;3.964;2022-08-03T05:36:40;23.20;55.00
18177;DHT22;9213;50.858;3.964;2022-08-03T05:39:08;23.20;55.10
18177;DHT22;9213;50.858;3.964;2022-08-03T05:41:35;23.30;55.10
18177;DHT22;9213;50.858;3.964;2022-08-03T05:44:02;23.30;55.00
18177;DHT22;9213;50.858;3.964;2022-08-03T05:46:29;23.40;54.50
18177;DHT22;9213;50.858;3.964;2022-08-03T05:48:56;23.50;54.60
18177;DHT22;9213;50.858;3.964;2022-08-03T05:51:23;23.50;54.50
18177;DHT22;9213;50.858;3.964;2022-08-03T05:53:50;23.60;54.30
18177;DHT22;9213;50.858;3.964;2022-08-03T05:56:21;23.60;54.10
18177;DHT22;9213;50.858;3.964;2022-08-03T05:58:49;23.60;54.20
18177;DHT22;9213;50.858;3.964;2022-08-03T06:01:17;23.60;54.30
18177;DHT22;9213;50.858;3.964;2022-08-03T06:03:46;23.60;54.30
18177;DHT22;9213;50.858;3.964;2022-08-03T06:06:13;23.60;54.40
18177;DHT22;9213;50.858;3.964;2022-08-03T06:08:41;23.70;54.50
18177;DHT22;9213;50.858;3.964;2022-08-03T06:11:08;23.70;54.70
18177;DHT22;9213;50.858;3.964;2022-08-03T06:13:36;23.70;54.40
18177;DHT22;9213;50.858;3.964;2022-08-03T06:16:04;23.80;54.50
18177;DHT22;9213;50.858;3.964;2022-08-03T06:18:31;23.80;54.40
18177;DHT22;9213;50.858;3.964;2022-08-03T06:20:58;23.80;54.50
18177;DHT22;9213;50.858;3.964;2022-08-03T06:23:24;23.90;54.40
18177;DHT22;9213;50.858;3.964;2022-08-03T06:25:51;23.90;54.30
18177;DHT22;9213;50.858;3.964;2022-08-03T06:28:18;24.00;54.30
18177;DHT22;9213;50.858;3.964;2022-08-03T06:30:47;24.10;54.40
18177;DHT22;9213;50.858;3.964;2022-08-03T06:33:13;24.20;54.30
18177;DHT22;9213;50.858;3.964;2022-08-03T06:35:41;24.30;53.80
18177;DHT22;9213;50.858;3.964;2022-08-03T06:38:08;24.40;53.50
18177;DHT22;9213;50.858;3.964;2022-08-03T06:40:35;24.50;53.40
18177;DHT22;9213;50.858;3.964;2022-08-03T06:43:05;24.60;53.30
18177;DHT22;9213;50.858;3.964;2022-08-03T06:45:33;24.70;53.20
18177;DHT22;9213;50.858;3.964;2022-08-03T06:48:03;24.70;53.00
18177;DHT22;9213;50.858;3.964;2022-08-03T06:50:30;24.80;53.00
18177;DHT22;9213;50.858;3.964;2022-08-03T06:52:57;24.90;52.80
18177;DHT22;9213;50.858;3.964;2022-08-03T06:55:25;25.10;52.90
18177;DHT22;9213;50.858;3.964;2022-08-03T06:57:52;25.80;52.20
18177;DHT22;9213;50.858;3.964;2022-08-03T07:00:19;27.00;50.10
18177;DHT22;9213;50.858;3.964;2022-08-03T07:02:47;28.50;46.10
18177;DHT22;9213;50.858;3.964;2022-08-03T07:05:16;29.90;42.40
18177;DHT22;9213;50.858;3.964;2022-08-03T07:07:43;31.60;38.90
18177;DHT22;9213;50.858;3.964;2022-08-03T07:10:10;33.20;36.00
18177;DHT22;9213;50.858;3.964;2022-08-03T07:12:38;34.60;33.50
18177;DHT22;9213;50.858;3.964;2022-08-03T07:15:06;35.90;30.90
18177;DHT22;9213;50.858;3.964;2022-08-03T07:17:34;37.00;29.20
18177;DHT22;9213;50.858;3.964;2022-08-03T07:20:03;37.80;27.20
18177;DHT22;9213;50.858;3.964;2022-08-03T07:22:32;38.50;26.20
18177;DHT22;9213;50.858;3.964;2022-08-03T07:24:59;39.20;25.10
18177;DHT22;9213;50.858;3.964;2022-08-03T07:27:27;39.70;24.00
18177;DHT22;9213;50.858;3.964;2022-08-03T07:29:55;40.10;24.40
18177;DHT22;9213;50.858;3.964;2022-08-03T07:32:22;40.40;22.90
18177;DHT22;9213;50.858;3.964;2022-08-03T07:34:49;40.80;22.20
18177;DHT22;9213;50.858;3.964;2022-08-03T07:37:16;41.10;22.00
18177;DHT22;9213;50.858;3.964;2022-08-03T07:39:44;41.40;21.40
18177;DHT22;9213;50.858;3.964;2022-08-03T07:42:11;41.60;20.70
18177;DHT22;9213;50.858;3.964;2022-08-03T07:44:38;41.70;20.20
18177;DHT22;9213;50.858;3.964;2022-08-03T07:47:05;41.80;20.10
18177;DHT22;9213;50.858;3.964;2022-08-03T07:49:32;42.00;20.30
18177;DHT22;9213;50.858;3.964;2022-08-03T07:51:59;42.30;20.10
18177;DHT22;9213;50.858;3.964;2022-08-03T07:54:45;42.50;19.80
18177;DHT22;9213;50.858;3.964;2022-08-03T07:57:11;42.80;19.10
18177;DHT22;9213;50.858;3.964;2022-08-03T07:59:38;42.90;19.10
18177;DHT22;9213;50.858;3.964;2022-08-03T08:02:05;43.00;19.60
18177;DHT22;9213;50.858;3.964;2022-08-03T08:04:32;43.00;18.90
18177;DHT22;9213;50.858;3.964;2022-08-03T08:06:59;43.00;19.20
18177;DHT22;9213;50.858;3.964;2022-08-03T08:09:26;42.90;18.80
18177;DHT22;9213;50.858;3.964;2022-08-03T08:11:54;42.80;18.80
18177;DHT22;9213;50.858;3.964;2022-08-03T08:14:21;42.80;18.80
18177;DHT22;9213;50.858;3.964;2022-08-03T08:16:48;42.60;19.00
18177;DHT22;9213;50.858;3.964;2022-08-03T08:19:15;42.50;19.10
18177;DHT22;9213;50.858;3.964;2022-08-03T08:21:42;42.40;19.40
18177;DHT22;9213;50.858;3.964;2022-08-03T08:24:09;42.40;19.10
18177;DHT22;9213;50.858;3.964;2022-08-03T08:26:36;42.30;19.20
18177;DHT22;9213;50.858;3.964;2022-08-03T08:29:05;42.40;19.40
18177;DHT22;9213;50.858;3.964;2022-08-03T08:31:32;42.50;19.30
18177;DHT22;9213;50.858;3.964;2022-08-03T08:33:59;42.60;19.00
18177;DHT22;9213;50.858;3.964;2022-08-03T08:36:30;42.80;18.70
18177;DHT22;9213;50.858;3.964;2022-08-03T08:38:57;43.10;19.10
18177;DHT22;9213;50.858;3.964;2022-08-03T08:41:24;43.30;18.40
18177;DHT22;9213;50.858;3.964;2022-08-03T08:43:53;43.40;18.10
18177;DHT22;9213;50.858;3.964;2022-08-03T08:46:21;43.50;17.90
18177;DHT22;9213;50.858;3.964;2022-08-03T08:48:48;43.60;18.00
18177;DHT22;9213;50.858;3.964;2022-08-03T08:51:18;43.60;17.80
18177;DHT22;9213;50.858;3.964;2022-08-03T08:53:48;43.70;18.00
18177;DHT22;9213;50.858;3.964;2022-08-03T08:56:17;43.70;18.20
18177;DHT22;9213;50.858;3.964;2022-08-03T08:58:48;43.80;17.70
18177;DHT22;9213;50.858;3.964;2022-08-03T09:01:17;44.00;17.60
18177;DHT22;9213;50.858;3.964;2022-08-03T09:03:47;44.00;17.80
18177;DHT22;9213;50.858;3.964;2022-08-03T09:06:14;44.20;17.50
18177;DHT22;9213;50.858;3.964;2022-08-03T09:08:42;44.10;17.60
18177;DHT22;9213;50.858;3.964;2022-08-03T09:11:08;44.00;17.70
18177;DHT22;9213;50.858;3.964;2022-08-03T09:13:35;44.00;17.60
18177;DHT22;9213;50.858;3.964;2022-08-03T09:16:11;44.10;17.30
18177;DHT22;9213;50.858;3.964;2022-08-03T09:18:39;44.00;17.40
18177;DHT22;9213;50.858;3.964;2022-08-03T09:21:15;43.90;16.80
18177;DHT22;9213;50.858;3.964;2022-08-03T09:23:44;44.00;17.10
18177;DHT22;9213;50.858;3.964;2022-08-03T09:26:12;44.10;16.70
18177;DHT22;9213;50.858;3.964;2022-08-03T09:28:39;44.10;16.90
18177;DHT22;9213;50.858;3.964;2022-08-03T09:31:06;44.10;16.80
18177;DHT22;9213;50.858;3.964;2022-08-03T09:33:46;44.10;16.60
18177;DHT22;9213;50.858;3.964;2022-08-03T09:36:35;44.20;17.00
18177;DHT22;9213;50.858;3.964;2022-08-03T09:39:04;44.10;17.00
18177;DHT22;9213;50.858;3.964;2022-08-03T09:41:31;43.80;16.90
18177;DHT22;9213;50.858;3.964;2022-08-03T09:43:58;43.60;17.00
18177;DHT22;9213;50.858;3.964;2022-08-03T09:46:25;43.60;17.50
18177;DHT22;9213;50.858;3.964;2022-08-03T09:49:08;43.50;17.40
18177;DHT22;9213;50.858;3.964;2022-08-03T09:51:37;43.50;17.70
18177;DHT22;9213;50.858;3.964;2022-08-03T09:54:05;43.30;17.60
18177;DHT22;9213;50.858;3.964;2022-08-03T09:56:39;43.10;17.80
18177;DHT22;9213;50.858;3.964;2022-08-03T09:59:07;43.10;18.20
18177;DHT22;9213;50.858;3.964;2022-08-03T10:01:34;43.00;17.90
18177;DHT22;9213;50.858;3.964;2022-08-03T10:04:02;43.00;18.00
18177;DHT22;9213;50.858;3.964;2022-08-03T10:06:29;42.90;17.80
18177;DHT22;9213;50.858;3.964;2022-08-03T10:09:07;42.80;17.90
18177;DHT22;9213;50.858;3.964;2022-08-03T10:11:35;43.00;18.50
18177;DHT22;9213;50.858;3.964;2022-08-03T10:14:03;42.70;18.00
18177;DHT22;9213;50.858;3.964;2022-08-03T10:16:33;42.70;18.10
18177;DHT22;9213;50.858;3.964;2022-08-03T10:19:01;42.60;18.60
18177;DHT22;9213;50.858;3.964;2022-08-03T10:21:32;42.50;18.40
18177;DHT22;9213;50.858;3.964;2022-08-03T10:24:02;42.60;18.50
18177;DHT22;9213;50.858;3.964;2022-08-03T10:26:32;42.50;18.20
18177;DHT22;9213;50.858;3.964;2022-08-03T10:29:04;42.50;18.20
18177;DHT22;9213;50.858;3.964;2022-08-03T10:31:36;42.40;18.50
18177;DHT22;9213;50.858;3.964;2022-08-03T10:34:08;42.30;18.60
18177;DHT22;9213;50.858;3.964;2022-08-03T10:36:38;42.30;18.70
18177;DHT22;9213;50.858;3.964;2022-08-03T10:39:06;42.30;19.20
18177;DHT22;9213;50.858;3.964;2022-08-03T10:41:38;42.30;19.10
18177;DHT22;9213;50.858;3.964;2022-08-03T10:44:09;42.40;18.40
18177;DHT22;9213;50.858;3.964;2022-08-03T10:46:38;42.30;18.60
18177;DHT22;9213;50.858;3.964;2022-08-03T10:49:06;42.30;18.80
18177;DHT22;9213;50.858;3.964;2022-08-03T10:51:33;42.20;18.90
18177;DHT22;9213;50.858;3.964;2022-08-03T10:54:00;42.10;19.30
18177;DHT22;9213;50.858;3.964;2022-08-03T10:56:41;42.20;19.10
18177;DHT22;9213;50.858;3.964;2022-08-03T10:59:57;42.30;19.30
18177;DHT22;9213;50.858;3.964;2022-08-03T11:05:26;42.50;19.10
18177;DHT22;9213;50.858;3.964;2022-08-03T11:08:18;42.40;19.10
18177;DHT22;9213;50.858;3.964;2022-08-03T11:10:45;42.50;18.70
18177;DHT22;9213;50.858;3.964;2022-08-03T11:13:15;42.50;18.70
18177;DHT22;9213;50.858;3.964;2022-08-03T11:15:44;42.50;18.80
18177;DHT22;9213;50.858;3.964;2022-08-03T11:18:12;42.50;18.80
18177;DHT22;9213;50.858;3.964;2022-08-03T11:20:49;42.50;18.80
18177;DHT22;9213;50.858;3.964;2022-08-03T11:23:19;42.50;19.00
18177;DHT22;9213;50.858;3.964;2022-08-03T11:26:12;42.50;18.60
18177;DHT22;9213;50.858;3.964;2022-08-03T11:28:40;42.50;19.00
18177;DHT22;9213;50.858;3.964;2022-08-03T11:31:45;42.40;19.00
18177;DHT22;9213;50.858;3.964;2022-08-03T11:34:14;42.50;18.80
18177;DHT22;9213;50.858;3.964;2022-08-03T11:37:19;42.40;18.60
18177;DHT22;9213;50.858;3.964;2022-08-03T11:39:49;42.40;18.70
18177;DHT22;9213;50.858;3.964;2022-08-03T11:42:37;42.30;18.60
18177;DHT22;9213;50.858;3.964;2022-08-03T11:45:06;42.30;19.10
18177;DHT22;9213;50.858;3.964;2022-08-03T11:47:37;42.10;19.20
18177;DHT22;9213;50.858;3.964;2022-08-03T11:50:05;42.10;19.10
18177;DHT22;9213;50.858;3.964;2022-08-03T11:52:37;42.10;19.10
18177;DHT22;9213;50.858;3.964;2022-08-03T11:55:09;42.20;19.30
18177;DHT22;9213;50.858;3.964;2022-08-03T11:57:36;42.30;19.10
18177;DHT22;9213;50.858;3.964;2022-08-03T12:00:22;42.30;19.00
18177;DHT22;9213;50.858;3.964;2022-08-03T12:03:01;42.50;18.80
18177;DHT22;9213;50.858;3.964;2022-08-03T12:05:36;42.50;18.70
18177;DHT22;9213;50.858;3.964;2022-08-03T12:08:04;42.50;18.90
18177;DHT22;9213;50.858;3.964;2022-08-03T12:10:31;42.50;18.70
18177;DHT22;9213;50.858;3.964;2022-08-03T12:13:00;42.60;18.40
18177;DHT22;9213;50.858;3.964;2022-08-03T12:15:32;42.70;18.60
18177;DHT22;9213;50.858;3.964;2022-08-03T12:18:00;42.80;18.30
18177;DHT22;9213;50.858;3.964;2022-08-03T12:20:29;42.90;18.20
18177;DHT22;9213;50.858;3.964;2022-08-03T12:23:02;43.00;18.90
18177;DHT22;9213;50.858;3.964;2022-08-03T12:25:30;43.00;18.90
18177;DHT22;9213;50.858;3.964;2022-08-03T12:28:07;43.00;18.30
18177;DHT22;9213;50.858;3.964;2022-08-03T12:30:36;43.10;18.10
18177;DHT22;9213;50.858;3.964;2022-08-03T12:33:13;43.10;18.40
18177;DHT22;9213;50.858;3.964;2022-08-03T12:35:41;43.20;18.20
18177;DHT22;9213;50.858;3.964;2022-08-03T12:38:09;43.20;18.10
18177;DHT22;9213;50.858;3.964;2022-08-03T12:40:36;43.20;17.90
18177;DHT22;9213;50.858;3.964;2022-08-03T12:43:10;43.20;17.60
18177;DHT22;9213;50.858;3.964;2022-08-03T12:45:39;43.20;17.90
18177;DHT22;9213;50.858;3.964;2022-08-03T12:48:08;43.20;17.60
18177;DHT22;9213;50.858;3.964;2022-08-03T12:50:37;43.30;17.60
18177;DHT22;9213;50.858;3.964;2022-08-03T12:53:06;43.40;17.70
18177;DHT22;9213;50.858;3.964;2022-08-03T12:55:34;43.40;17.30
18177;DHT22;9213;50.858;3.964;2022-08-03T12:58:03;43.50;17.60
18177;DHT22;9213;50.858;3.964;2022-08-03T13:00:31;43.50;17.10
18177;DHT22;9213;50.858;3.964;2022-08-03T13:03:00;43.50;17.40
18177;DHT22;9213;50.858;3.964;2022-08-03T13:05:29;43.50;17.60
18177;DHT22;9213;50.858;3.964;2022-08-03T13:07:56;43.60;17.50
18177;DHT22;9213;50.858;3.964;2022-08-03T13:10:28;43.60;17.30
18177;DHT22;9213;50.858;3.964;2022-08-03T13:12:56;43.70;17.20
18177;DHT22;9213;50.858;3.964;2022-08-03T13:15:25;43.80;17.80
18177;DHT22;9213;50.858;3.964;2022-08-03T13:17:53;43.80;17.30
18177;DHT22;9213;50.858;3.964;2022-08-03T13:20:22;43.80;17.30
18177;DHT22;9213;50.858;3.964;2022-08-03T13:22:50;43.80;17.00
18177;DHT22;9213;50.858;3.964;2022-08-03T13:25:17;43.80;17.00
18177;DHT22;9213;50.858;3.964;2022-08-03T13:27:45;43.90;16.70
18177;DHT22;9213;50.858;3.964;2022-08-03T13:30:12;43.80;17.50
18177;DHT22;9213;50.858;3.964;2022-08-03T13:32:40;43.80;17.00
18177;DHT22;9213;50.858;3.964;2022-08-03T13:35:07;43.70;17.10
18177;DHT22;9213;50.858;3.964;2022-08-03T13:37:36;43.60;17.30
18177;DHT22;9213;50.858;3.964;2022-08-03T13:40:05;43.60;17.10
18177;DHT22;9213;50.858;3.964;2022-08-03T13:42:33;43.50;17.30
18177;DHT22;9213;50.858;3.964;2022-08-03T13:45:01;43.60;17.10
18177;DHT22;9213;50.858;3.964;2022-08-03T13:47:28;43.60;17.30
18177;DHT22;9213;50.858;3.964;2022-08-03T13:49:55;43.50;17.10
18177;DHT22;9213;50.858;3.964;2022-08-03T13:52:22;43.40;17.20
18177;DHT22;9213;50.858;3.964;2022-08-03T13:54:50;43.40;17.40
18177;DHT22;9213;50.858;3.964;2022-08-03T13:57:17;43.20;17.50
18177;DHT22;9213;50.858;3.964;2022-08-03T13:59:44;43.10;17.80
18177;DHT22;9213;50.858;3.964;2022-08-03T14:02:11;43.00;17.60
18177;DHT22;9213;50.858;3.964;2022-08-03T14:04:38;42.90;17.30
18177;DHT22;9213;50.858;3.964;2022-08-03T14:07:05;42.90;17.20
18177;DHT22;9213;50.858;3.964;2022-08-03T14:09:32;42.90;17.10
18177;DHT22;9213;50.858;3.964;2022-08-03T14:12:00;42.80;17.60
18177;DHT22;9213;50.858;3.964;2022-08-03T14:14:27;42.80;17.60
18177;DHT22;9213;50.858;3.964;2022-08-03T14:16:54;42.70;17.70
18177;DHT22;9213;50.858;3.964;2022-08-03T14:19:21;42.60;17.50
18177;DHT22;9213;50.858;3.964;2022-08-03T14:21:48;42.60;17.80
18177;DHT22;9213;50.858;3.964;2022-08-03T14:24:15;42.50;17.90
18177;DHT22;9213;50.858;3.964;2022-08-03T14:26:42;42.40;17.90
18177;DHT22;9213;50.858;3.964;2022-08-03T14:29:10;42.40;18.10
18177;DHT22;9213;50.858;3.964;2022-08-03T14:31:37;42.30;17.60
18177;DHT22;9213;50.858;3.964;2022-08-03T14:34:04;42.10;17.60
18177;DHT22;9213;50.858;3.964;2022-08-03T14:36:31;42.10;18.20
18177;DHT22;9213;50.858;3.964;2022-08-03T14:38:58;41.90;17.80
18177;DHT22;9213;50.858;3.964;2022-08-03T14:41:25;41.90;18.10
18177;DHT22;9213;50.858;3.964;2022-08-03T14:43:51;41.90;17.90
18177;DHT22;9213;50.858;3.964;2022-08-03T14:46:21;41.90;18.50
18177;DHT22;9213;50.858;3.964;2022-08-03T14:48:48;41.80;18.50
18177;DHT22;9213;50.858;3.964;2022-08-03T14:51:15;41.80;18.30
18177;DHT22;9213;50.858;3.964;2022-08-03T14:53:42;41.70;17.90
18177;DHT22;9213;50.858;3.964;2022-08-03T14:56:09;41.60;18.20
18177;DHT22;9213;50.858;3.964;2022-08-03T14:58:36;41.50;18.20
18177;DHT22;9213;50.858;3.964;2022-08-03T15:01:03;41.50;18.60
18177;DHT22;9213;50.858;3.964;2022-08-03T15:03:33;41.50;18.70
18177;DHT22;9213;50.858;3.964;2022-08-03T15:06:00;41.40;18.20
18177;DHT22;9213;50.858;3.964;2022-08-03T15:08:27;41.40;18.70
18177;DHT22;9213;50.858;3.964;2022-08-03T15:10:55;41.30;18.60
18177;DHT22;9213;50.858;3.964;2022-08-03T15:13:22;41.30;18.50
18177;DHT22;9213;50.858;3.964;2022-08-03T15:15:49;41.20;18.30
18177;DHT22;9213;50.858;3.964;2022-08-03T15:18:17;41.10;18.40
18177;DHT22;9213;50.858;3.964;2022-08-03T15:20:46;40.90;18.10
18177;DHT22;9213;50.858;3.964;2022-08-03T15:23:14;40.70;18.50
18177;DHT22;9213;50.858;3.964;2022-08-03T15:25:41;40.60;18.80
18177;DHT22;9213;50.858;3.964;2022-08-03T15:28:08;40.50;19.10
18177;DHT22;9213;50.858;3.964;2022-08-03T15:30:35;40.60;18.80
18177;DHT22;9213;50.858;3.964;2022-08-03T15:33:04;40.50;18.90
18177;DHT22;9213;50.858;3.964;2022-08-03T15:35:31;40.40;19.40
18177;DHT22;9213;50.858;3.964;2022-08-03T15:38:00;40.40;19.30
18177;DHT22;9213;50.858;3.964;2022-08-03T15:40:26;40.40;19.20
18177;DHT22;9213;50.858;3.964;2022-08-03T15:42:53;40.40;18.90
18177;DHT22;9213;50.858;3.964;2022-08-03T15:45:20;40.40;19.10
18177;DHT22;9213;50.858;3.964;2022-08-03T15:47:47;40.30;19.40
18177;DHT22;9213;50.858;3.964;2022-08-03T15:50:14;40.20;19.30
18177;DHT22;9213;50.858;3.964;2022-08-03T15:52:41;40.20;19.30
18177;DHT22;9213;50.858;3.964;2022-08-03T15:55:09;40.10;19.80
18177;DHT22;9213;50.858;3.964;2022-08-03T15:57:36;40.00;20.00
18177;DHT22;9213;50.858;3.964;2022-08-03T16:00:05;40.00;19.90